Time;durP1;ratioP1;P1;durP2;ratioP2;P2;SDS_P1;SDS_P2;PMS_P1;PMS_P2;Temp;Humidity;BMP_temperature;BMP_pressure;BME280_temperature;BME280_humidity;BME280_pressure;Samples;Min_cycle;Max_cycle;Signal;HPM_P1;HPM_P2
2023/11/09 00:01:11;;;;;;;19.00;7.80;;;;;;;6.34;100.00;97990.30;109122;1253;58494;-81
2023/11/09 00:03:49;;;;;;;11.40;6.70;;;;;;;6.26;100.00;97994.73;109142;1253;60040;-80
2023/11/09 00:06:16;;;;;;;15.90;7.40;;;;;;;6.19;100.00;97996.16;108940;1253;73818;-81
2023/11/09 00:08:44;;;;;;;13.10;7.20;;;;;;;6.12;100.00;97999.73;109134;1253;69342;-81
2023/11/09 00:11:10;;;;;;;13.60;7.80;;;;;;;6.01;100.00;98003.64;109124;1253;71121;-81
2023/11/09 00:13:37;;;;;;;15.90;8.90;;;;;;;5.92;100.00;98003.52;109134;1253;58807;-82
2023/11/09 00:16:04;;;;;;;13.30;7.20;;;;;;;5.82;100.00;98001.42;109021;1253;59540;-82
2023/11/09 00:18:31;;;;;;;13.30;7.10;;;;;;;5.72;100.00;97996.14;109137;1253;73542;-81
2023/11/09 00:21:02;;;;;;;16.90;8.30;;;;;;;5.63;100.00;97998.29;109125;1253;69925;-81
2023/11/09 00:23:29;;;;;;;19.40;9.60;;;;;;;5.52;100.00;97996.56;109135;1253;72165;-81
2023/11/09 00:25:55;;;;;;;24.50;9.90;;;;;;;5.44;100.00;97995.04;109104;1253;58211;-81
2023/11/09 00:28:22;;;;;;;19.90;9.70;;;;;;;5.37;100.00;97998.81;109111;1253;59348;-82
2023/11/09 00:30:49;;;;;;;18.70;10.50;;;;;;;5.30;100.00;98002.60;109239;1252;71907;-81
2023/11/09 00:33:15;;;;;;;18.70;9.50;;;;;;;5.24;100.00;97999.98;109085;1253;70778;-82
2023/11/09 00:35:43;;;;;;;17.80;9.60;;;;;;;5.16;100.00;98000.17;109138;1253;71111;-81
2023/11/09 00:38:14;;;;;;;16.90;10.80;;;;;;;5.11;100.00;97996.42;109070;1253;58665;-81
2023/11/09 00:40:41;;;;;;;18.00;10.70;;;;;;;5.05;100.00;98002.80;109170;1253;58999;-82
2023/11/09 00:43:08;;;;;;;18.70;10.30;;;;;;;5.00;100.00;97997.07;108968;1253;73792;-81
2023/11/09 00:45:35;;;;;;;19.10;10.70;;;;;;;4.92;100.00;97998.34;109164;1253;70673;-82
2023/11/09 00:48:02;;;;;;;23.10;13.00;;;;;;;4.85;100.00;97997.98;109216;1253;71374;-82
2023/11/09 00:50:29;;;;;;;18.40;11.50;;;;;;;4.80;100.00;97997.23;109135;1253;58449;-81
2023/11/09 00:52:55;;;;;;;22.80;13.00;;;;;;;4.75;100.00;97990.85;109269;1253;59030;-82
2023/11/09 00:55:22;;;;;;;16.20;9.70;;;;;;;4.70;100.00;97986.16;109240;1253;72280;-82
2023/11/09 00:57:48;;;;;;;17.10;10.20;;;;;;;4.63;100.00;97983.67;109145;1253;58322;-80
2023/11/09 01:00:16;;;;;;;17.40;9.60;;;;;;;4.54;100.00;97981.48;109147;1253;72346;-81
2023/11/09 01:02:48;;;;;;;18.50;9.40;;;;;;;4.49;100.00;97988.73;109113;1254;58351;-81
2023/11/09 01:05:14;;;;;;;20.80;9.10;;;;;;;4.39;100.00;97985.02;109150;1253;58488;-81
2023/11/09 01:07:41;;;;;;;13.50;8.10;;;;;;;4.34;100.00;97986.79;109150;1253;72365;-81
2023/11/09 01:10:08;;;;;;;15.50;8.70;;;;;;;4.28;100.00;97985.23;109186;1253;69954;-81
2023/11/09 01:12:35;;;;;;;19.20;9.70;;;;;;;4.15;100.00;97988.27;109105;1253;72303;-80
2023/11/09 01:15:02;;;;;;;15.20;8.30;;;;;;;4.02;100.00;97987.52;109111;1253;58220;-81
2023/11/09 01:17:29;;;;;;;15.70;7.50;;;;;;;3.97;100.00;97985.55;109159;1253;59881;-80
2023/11/09 01:19:56;;;;;;;16.30;8.60;;;;;;;3.91;100.00;97982.95;109064;1253;73684;-80
2023/11/09 01:22:22;;;;;;;35.50;21.30;;;;;;;3.87;100.00;97986.48;109065;1254;58855;-82
2023/11/09 01:24:49;;;;;;;20.30;11.30;;;;;;;3.84;100.00;97980.67;109084;1253;58706;-80
2023/11/09 01:27:16;;;;;;;12.10;7.80;;;;;;;3.82;100.00;97976.08;109076;1253;58268;-80
2023/11/09 01:29:42;;;;;;;14.50;8.90;;;;;;;3.80;100.00;97972.39;109114;1253;60331;-80
2023/11/09 01:32:09;;;;;;;14.40;8.70;;;;;;;3.76;100.00;97973.65;109158;1253;58133;-80
2023/11/09 01:34:35;;;;;;;16.40;8.80;;;;;;;3.70;100.00;97976.80;109181;1252;69467;-80
2023/11/09 01:37:02;;;;;;;16.50;7.90;;;;;;;3.63;100.00;97976.83;109125;1253;71448;-80
2023/11/09 01:39:28;;;;;;;16.50;9.60;;;;;;;3.55;100.00;97972.98;109093;1253;58597;-80
2023/11/09 01:41:55;;;;;;;16.30;9.00;;;;;;;3.46;100.00;97976.08;109147;1252;58849;-81
2023/11/09 01:44:21;;;;;;;16.40;8.30;;;;;;;3.39;100.00;97973.73;108962;1253;71569;-80
2023/11/09 01:46:52;;;;;;;15.50;9.50;;;;;;;3.35;100.00;97966.90;109197;1253;58709;-80
2023/11/09 01:49:20;;;;;;;17.40;8.70;;;;;;;3.32;100.00;97967.23;109187;1253;71494;-80
2023/11/09 01:51:48;;;;;;;14.00;9.70;;;;;;;3.27;100.00;97965.12;109245;1252;58311;-80
2023/11/09 01:54:15;;;;;;;18.60;9.50;;;;;;;3.26;100.00;97963.37;109254;1253;60287;-81
2023/11/09 01:56:41;;;;;;;18.90;9.50;;;;;;;3.26;100.00;97962.41;109115;1253;58197;-80
2023/11/09 01:59:09;;;;;;;18.60;9.00;;;;;;;3.30;100.00;97963.13;109174;1253;68833;-80
2023/11/09 02:01:36;;;;;;;17.70;9.40;;;;;;;3.31;100.00;97960.48;109117;1253;71893;-81
2023/11/09 02:04:03;;;;;;;18.10;9.60;;;;;;;3.35;100.00;97957.46;109021;1253;58941;-81
2023/11/09 02:06:29;;;;;;;16.00;7.60;;;;;;;3.37;100.00;97962.70;109115;1253;61223;-80
2023/11/09 02:08:57;;;;;;;15.60;9.10;;;;;;;3.38;100.00;97962.92;109121;1253;73957;-81
2023/11/09 02:11:25;;;;;;;17.30;9.70;;;;;;;3.37;100.00;97965.77;109135;1253;69519;-80
2023/11/09 02:13:51;;;;;;;16.10;9.70;;;;;;;3.37;100.00;97963.19;109136;1253;72480;-80
2023/11/09 02:16:18;;;;;;;17.20;10.00;;;;;;;3.37;100.00;97965.60;109105;1253;58819;-81
2023/11/09 02:18:45;;;;;;;15.70;9.30;;;;;;;3.35;100.00;97968.02;109141;1253;58192;-80
2023/11/09 02:21:14;;;;;;;20.90;11.40;;;;;;;3.34;100.00;97967.66;109156;1253;73227;-81
2023/11/09 02:23:42;;;;;;;14.50;9.10;;;;;;;3.30;100.00;97962.91;109128;1254;70788;-80
2023/11/09 02:26:09;;;;;;;16.60;8.80;;;;;;;3.22;100.00;97967.77;109109;1253;72307;-80
2023/11/09 02:28:37;;;;;;;15.60;9.30;;;;;;;3.07;100.00;97967.98;109126;1253;58330;-81
2023/11/09 02:31:03;;;;;;;19.20;8.10;;;;;;;2.95;100.00;97964.11;109133;1253;59629;-80
2023/11/09 02:33:30;;;;;;;17.30;9.60;;;;;;;2.81;100.00;97964.31;109120;1254;72715;-80
2023/11/09 02:35:56;;;;;;;19.30;10.40;;;;;;;2.73;100.00;97961.38;109145;1253;71125;-80
2023/11/09 02:38:23;;;;;;;13.60;8.60;;;;;;;2.66;100.00;97961.20;109139;1252;72637;-81
2023/11/09 02:40:49;;;;;;;18.00;8.10;;;;;;;2.60;100.00;97958.42;109116;1254;58765;-80
2023/11/09 02:43:16;;;;;;;13.50;8.00;;;;;;;2.53;100.00;97959.51;109113;1253;58200;-80
2023/11/09 02:45:42;;;;;;;23.50;11.00;;;;;;;2.46;100.00;97959.83;109132;1253;73543;-79
2023/11/09 02:48:09;;;;;;;21.60;10.90;;;;;;;2.40;100.00;97957.36;109298;1252;69467;-80
2023/11/09 02:50:36;;;;;;;21.40;10.20;;;;;;;2.35;100.00;97955.77;109254;1253;72375;-80
2023/11/09 02:53:02;;;;;;;15.90;9.20;;;;;;;2.28;100.00;97953.02;109248;1253;59110;-81
2023/11/09 02:55:29;;;;;;;12.80;7.10;;;;;;;2.24;100.00;97952.29;109329;1252;58407;-81
2023/11/09 02:57:55;;;;;;;23.50;8.80;;;;;;;2.21;100.00;97947.60;109036;1254;73603;-80
2023/11/09 03:00:22;;;;;;;11.20;7.60;;;;;;;2.18;100.00;97943.48;109067;1254;70974;-80
2023/11/09 03:02:48;;;;;;;13.80;7.90;;;;;;;2.13;100.00;97941.63;109013;1254;72167;-80
2023/11/09 03:05:21;;;;;;;13.10;7.40;;;;;;;2.05;100.00;97940.77;108978;1253;58928;-81
2023/11/09 03:07:48;;;;;;;17.70;7.80;;;;;;;1.92;100.00;97940.96;109160;1253;58685;-81
2023/11/09 03:10:16;;;;;;;12.20;7.10;;;;;;;1.84;100.00;97935.93;109140;1253;72720;-80
2023/11/09 03:12:42;;;;;;;12.20;7.40;;;;;;;1.79;100.00;97943.60;109135;1253;70984;-80
2023/11/09 03:15:10;;;;;;;12.30;6.80;;;;;;;1.77;100.00;97945.19;109125;1253;71634;-80
2023/11/09 03:17:39;;;;;;;14.10;7.10;;;;;;;1.68;100.00;97944.52;109093;1253;58313;-80
2023/11/09 03:20:09;;;;;;;;;;;;;;;1.60;100.00;97941.30;109166;1253;58906;-81
2023/11/09 03:22:36;;;;;;;11.10;6.30;;;;;;;1.53;100.00;97941.73;109091;1253;73565;-81
2023/11/09 03:25:04;;;;;;;9.80;6.00;;;;;;;1.49;100.00;97940.02;109118;1253;70894;-81
2023/11/09 03:27:31;;;;;;;10.40;6.70;;;;;;;1.49;100.00;97933.41;109128;1253;73106;-81
2023/11/09 03:29:57;;;;;;;10.60;7.00;;;;;;;1.52;100.00;97930.91;109128;1253;58436;-83
2023/11/09 03:32:24;;;;;;;15.20;7.40;;;;;;;1.59;100.00;97937.74;109115;1253;58648;-80
2023/11/09 03:34:50;;;;;;;16.10;8.70;;;;;;;1.71;100.00;97939.52;109079;1253;73432;-80
2023/11/09 03:37:17;;;;;;;18.50;9.20;;;;;;;1.91;100.00;97938.48;109111;1253;58293;-80
2023/11/09 03:39:43;;;;;;;68.90;37.60;;;;;;;2.10;100.00;97935.50;109149;1253;58707;-80
2023/11/09 03:42:11;;;;;;;49.90;32.10;;;;;;;2.25;100.00;97939.52;109123;1253;58483;-80
2023/11/09 03:44:38;;;;;;;27.30;15.70;;;;;;;2.36;100.00;97942.28;109153;1253;58318;-80
2023/11/09 03:47:05;;;;;;;29.30;12.50;;;;;;;2.44;100.00;97942.64;109031;1253;73533;-80
2023/11/09 03:49:32;;;;;;;23.60;12.00;;;;;;;2.49;100.00;97938.72;109179;1253;71333;-80
2023/11/09 03:51:59;;;;;;;14.60;8.60;;;;;;;2.48;100.00;97937.40;109115;1253;72217;-80
2023/11/09 03:54:25;;;;;;;15.50;9.30;;;;;;;2.38;100.00;97935.59;109186;1253;58649;-80
2023/11/09 03:56:52;;;;;;;14.00;8.40;;;;;;;2.29;100.00;97935.85;109156;1253;58999;-80
2023/11/09 03:59:19;;;;;;;14.00;9.30;;;;;;;2.21;100.00;97934.31;109099;1253;75072;-80
2023/11/09 04:01:45;;;;;;;15.50;8.90;;;;;;;2.13;100.00;97935.91;109133;1253;58531;-81
2023/11/09 04:04:14;;;;;;;16.50;10.10;;;;;;;2.09;100.00;97934.77;109158;1256;71677;-81
2023/11/09 04:06:41;;;;;;;19.40;12.00;;;;;;;1.98;100.00;97936.86;109147;1253;58668;-80
2023/11/09 04:09:09;;;;;;;17.50;12.00;;;;;;;1.89;100.00;97931.73;109156;1253;59486;-80
2023/11/09 04:11:36;;;;;;;19.30;11.80;;;;;;;1.80;100.00;97933.48;109031;1253;73079;-80
2023/11/09 04:14:02;;;;;;;14.30;9.50;;;;;;;1.68;100.00;97933.84;108970;1253;70012;-80
2023/11/09 04:16:29;;;;;;;16.00;8.20;;;;;;;1.60;100.00;97932.06;109152;1253;71753;-80
2023/11/09 04:18:56;;;;;;;17.50;8.40;;;;;;;1.48;100.00;97933.63;109123;1253;58167;-80
2023/11/09 04:21:22;;;;;;;15.30;9.20;;;;;;;1.40;100.00;97930.32;109115;1253;58841;-80
2023/11/09 04:23:49;;;;;;;10.80;7.60;;;;;;;1.33;100.00;97933.91;109161;1253;58543;-80
2023/11/09 04:26:16;;;;;;;21.10;9.30;;;;;;;1.31;100.00;97928.81;109126;1253;69794;-80
2023/11/09 04:28:43;;;;;;;12.90;7.70;;;;;;;1.29;100.00;97935.25;109116;1253;72679;-80
2023/11/09 04:31:10;;;;;;;23.10;11.40;;;;;;;1.31;100.00;97933.47;109163;1253;58249;-80
2023/11/09 04:33:37;;;;;;;16.80;7.30;;;;;;;1.31;100.00;97931.98;109213;1253;60105;-81
2023/11/09 04:36:08;;;;;;;14.00;6.80;;;;;;;1.27;100.00;97928.65;109157;1253;72688;-80
2023/11/09 04:38:38;;;;;;;13.30;6.60;;;;;;;1.19;100.00;97928.36;109171;1253;69544;-80
2023/11/09 04:41:15;;;;;;;12.90;6.60;;;;;;;1.14;100.00;97927.41;109135;1253;73173;-80
2023/11/09 04:43:42;;;;;;;10.80;6.40;;;;;;;1.06;100.00;97925.63;109133;1253;59046;-80
2023/11/09 04:46:17;;;;;;;15.70;6.90;;;;;;;1.04;100.00;97922.20;108981;1253;60094;-80
2023/11/09 04:48:55;;;;;;;12.30;7.00;;;;;;;1.04;100.00;97922.01;109316;1252;72886;-81
2023/11/09 04:51:22;;;;;;;14.50;7.10;;;;;;;1.02;100.00;97920.21;109302;1254;69478;-81
2023/11/09 04:53:51;;;;;;;13.00;7.10;;;;;;;0.98;100.00;97920.09;109337;1252;71857;-80
2023/11/09 05:07:33;;;;;;;12.50;7.40;;;;;;;1.05;100.00;97909.91;109127;1253;72632;-80
2023/11/09 05:10:00;;;;;;;17.80;7.50;;;;;;;1.01;100.00;97908.27;109008;1253;58867;-80
2023/11/09 05:12:26;;;;;;;14.00;7.90;;;;;;;0.98;100.00;97911.50;109142;1253;59685;-80
2023/11/09 05:14:53;;;;;;;13.60;9.60;;;;;;;0.93;100.00;97910.28;108931;1253;73683;-80
2023/11/09 05:17:20;;;;;;;19.10;9.20;;;;;;;0.92;100.00;97910.45;109175;1253;71050;-80
2023/11/09 05:19:46;;;;;;;14.60;8.60;;;;;;;0.90;100.00;97908.30;109173;1253;72912;-79
2023/11/09 05:22:13;;;;;;;18.30;7.70;;;;;;;0.87;100.00;97912.73;109123;1253;58328;-81
2023/11/09 05:24:40;;;;;;;17.90;7.20;;;;;;;0.87;100.00;97914.42;109166;1253;58747;-80
2023/11/09 05:27:07;;;;;;;16.40;8.50;;;;;;;0.85;100.00;97915.37;109180;1253;72459;-80
2023/11/09 05:29:34;;;;;;;15.60;9.80;;;;;;;0.79;100.00;97910.66;109171;1253;70974;-80
2023/11/09 05:32:06;;;;;;;16.90;9.50;;;;;;;0.73;100.00;97901.02;109119;1253;72563;-80
2023/11/09 05:34:36;;;;;;;19.90;9.80;;;;;;;0.73;100.00;97903.91;109127;1253;58816;-80
2023/11/09 05:37:03;;;;;;;25.20;11.20;;;;;;;0.71;100.00;97898.10;109045;1253;60928;-80
2023/11/09 05:39:30;;;;;;;15.80;9.30;;;;;;;0.70;100.00;97901.43;109190;1253;73576;-80
2023/11/09 05:41:56;;;;;;;22.30;11.10;;;;;;;0.69;100.00;97897.14;109148;1253;71404;-80
2023/11/09 05:44:23;;;;;;;19.30;11.00;;;;;;;0.65;100.00;97899.39;109214;1253;71448;-79
2023/11/09 05:46:49;;;;;;;20.50;12.00;;;;;;;0.65;100.00;97898.90;109205;1252;58505;-82
2023/11/09 05:49:16;;;;;;;22.20;11.20;;;;;;;0.64;100.00;97895.25;109102;1252;59059;-79
2023/11/09 05:51:47;;;;;;;20.40;11.20;;;;;;;0.66;100.00;97896.80;109280;1252;58770;-80
2023/11/09 05:54:14;;;;;;;21.50;10.40;;;;;;;0.64;100.00;97897.76;109302;1252;70313;-80
2023/11/09 05:56:41;;;;;;;23.10;13.40;;;;;;;0.64;100.00;97895.30;109141;1253;59046;-81
2023/11/09 05:59:10;;;;;;;25.70;12.60;;;;;;;0.66;100.00;97894.12;109014;1253;58911;-80
2023/11/09 06:01:37;;;;;;;19.40;11.90;;;;;;;0.69;100.00;97890.77;108995;1253;58939;-79
2023/11/09 06:04:04;;;;;;;22.60;10.60;;;;;;;0.72;100.00;97891.89;109149;1253;73469;-80
2023/11/09 06:06:30;;;;;;;28.60;12.40;;;;;;;0.76;100.00;97896.20;109190;1252;71267;-80
2023/11/09 06:08:58;;;;;;;16.40;10.20;;;;;;;0.80;100.00;97896.01;109025;1253;71619;-80
2023/11/09 06:11:29;;;;;;;16.20;9.80;;;;;;;0.82;100.00;97893.69;109079;1253;59106;-80
2023/11/09 06:13:55;;;;;;;18.70;10.00;;;;;;;0.87;100.00;97892.75;109044;1253;58641;-80
2023/11/09 06:16:22;;;;;;;44.90;15.70;;;;;;;0.91;100.00;97892.45;109158;1253;73940;-80
2023/11/09 06:18:48;;;;;;;28.80;16.80;;;;;;;0.97;100.00;97893.38;109193;1253;69862;-80
2023/11/09 06:21:15;;;;;;;32.50;21.40;;;;;;;1.00;100.00;97892.40;109141;1253;72654;-80
2023/11/09 06:23:42;;;;;;;30.10;17.40;;;;;;;0.98;100.00;97886.70;109115;1253;58433;-80
2023/11/09 06:26:08;;;;;;;26.00;18.20;;;;;;;1.00;100.00;97888.40;109161;1252;58727;-80
2023/11/09 06:28:35;;;;;;;26.30;12.60;;;;;;;1.05;100.00;97888.66;109184;1253;58404;-81
2023/11/09 06:31:06;;;;;;;20.90;12.20;;;;;;;1.08;100.00;97884.63;109156;1253;70553;-80
2023/11/09 06:33:33;;;;;;;21.90;12.50;;;;;;;1.09;100.00;97881.89;109014;1254;191253;-80
2023/11/09 06:36:00;;;;;;;20.10;12.40;;;;;;;1.09;100.00;97873.41;109151;1253;58244;-80
2023/11/09 06:38:27;;;;;;;26.30;14.70;;;;;;;1.12;100.00;97868.05;108987;1258;59892;-80
2023/11/09 06:40:54;;;;;;;24.70;14.40;;;;;;;1.18;100.00;97863.90;109170;1253;72423;-79
2023/11/09 06:43:20;;;;;;;25.70;14.80;;;;;;;1.33;100.00;97862.61;109105;1253;69405;-80
2023/11/09 06:45:47;;;;;;;29.70;15.90;;;;;;;1.75;100.00;97857.71;109124;1253;58985;-80
2023/11/09 06:48:13;;;;;;;33.50;15.80;;;;;;;2.03;100.00;97862.20;109131;1253;58300;-80
2023/11/09 06:50:40;;;;;;;22.10;13.30;;;;;;;2.22;100.00;97862.08;109158;1253;60330;-81
2023/11/09 06:53:08;;;;;;;20.60;12.90;;;;;;;2.29;100.00;97864.34;109095;1253;73457;-81
2023/11/09 06:55:35;;;;;;;24.00;13.50;;;;;;;2.10;100.00;97867.66;109154;1253;70845;-80
2023/11/09 06:58:03;;;;;;;23.20;14.20;;;;;;;1.99;100.00;97866.09;109093;1254;71307;-81
2023/11/09 07:00:29;;;;;;;24.50;15.50;;;;;;;1.86;100.00;97869.55;109101;1253;58835;-81
2023/11/09 07:02:58;;;;;;;28.60;17.40;;;;;;;1.76;100.00;97868.39;109089;1253;58450;-80
2023/11/09 07:05:25;;;;;;;32.60;21.70;;;;;;;1.69;100.00;97869.39;109161;1252;73832;-81
2023/11/09 07:07:52;;;;;;;33.00;20.10;;;;;;;1.63;100.00;97870.52;109163;1253;69937;-81
2023/11/09 07:10:18;;;;;;;34.20;19.90;;;;;;;1.63;100.00;97861.95;109123;1253;73211;-80
2023/11/09 07:12:45;;;;;;;26.20;16.50;;;;;;;1.71;100.00;97859.66;109179;1253;58325;-81
2023/11/09 07:15:13;;;;;;;28.30;18.20;;;;;;;1.75;100.00;97863.19;109266;1252;60745;-81
2023/11/09 07:17:39;;;;;;;28.40;18.20;;;;;;;1.79;100.00;97858.35;109206;1253;72899;-80
2023/11/09 07:20:08;;;;;;;31.50;17.80;;;;;;;1.85;100.00;97854.83;109103;1253;70621;-81
2023/11/09 07:22:35;;;;;;;33.00;16.80;;;;;;;1.94;100.00;97851.48;108958;1252;72307;-81
2023/11/09 07:25:02;;;;;;;28.50;17.30;;;;;;;2.03;100.00;97849.73;109168;1253;58783;-80
2023/11/09 07:27:29;;;;;;;31.10;17.50;;;;;;;2.10;100.00;97843.34;109216;1253;60093;-81
2023/11/09 07:29:55;;;;;;;40.40;20.80;;;;;;;2.19;100.00;97845.96;109088;1253;73998;-81
2023/11/09 07:32:22;;;;;;;31.00;16.50;;;;;;;2.25;100.00;97848.80;109071;1253;69102;-80
2023/11/09 07:34:48;;;;;;;36.30;20.10;;;;;;;2.33;100.00;97847.55;109027;1253;71488;-79
2023/11/09 07:37:15;;;;;;;46.00;26.80;;;;;;;2.44;100.00;97853.16;109110;1253;58360;-80
2023/11/09 07:39:43;;;;;;;45.40;20.60;;;;;;;2.58;100.00;97849.18;109096;1253;58453;-80
2023/11/09 07:42:10;;;;;;;38.20;21.20;;;;;;;2.68;100.00;97849.36;108965;1253;73655;-80
2023/11/09 07:44:37;;;;;;;27.30;15.80;;;;;;;2.78;100.00;97846.10;109104;1253;70348;-80
2023/11/09 07:47:04;;;;;;;41.10;24.90;;;;;;;2.86;100.00;97845.33;109137;1253;72097;-80
2023/11/09 07:49:31;;;;;;;80.10;38.70;;;;;;;2.97;100.00;97835.39;109057;1253;58811;-80
2023/11/09 07:52:01;;;;;;;108.70;52.40;;;;;;;3.05;100.00;97835.20;108984;1253;59238;-80
2023/11/09 07:54:29;;;;;;;49.10;30.70;;;;;;;3.17;100.00;97831.74;109136;1253;73224;-80
2023/11/09 07:56:58;;;;;;;66.70;38.00;;;;;;;3.28;100.00;97825.81;109112;1253;71649;-80
2023/11/09 07:59:26;;;;;;;33.50;19.60;;;;;;;3.41;100.00;97823.61;109249;1253;72417;-80
2023/11/09 08:01:53;;;;;;;152.60;71.70;;;;;;;3.54;100.00;97814.09;109110;1253;59181;-80
2023/11/09 08:04:21;;;;;;;455.70;266.40;;;;;;;3.65;100.00;97810.19;109151;1253;59522;-81
2023/11/09 08:06:47;;;;;;;95.10;63.80;;;;;;;3.77;100.00;97807.77;109158;1253;71735;-80
2023/11/09 08:09:15;;;;;;;36.20;21.90;;;;;;;3.90;100.00;97803.61;109097;1253;69699;-81
2023/11/09 08:11:43;;;;;;;30.00;22.20;;;;;;;4.03;100.00;97800.39;108974;1256;71112;-80
2023/11/09 08:14:10;;;;;;;22.90;13.60;;;;;;;4.15;100.00;97798.92;109125;1253;58373;-80
2023/11/09 08:16:36;;;;;;;22.60;15.20;;;;;;;4.27;100.00;97795.45;109229;1253;58183;-81
2023/11/09 08:19:03;;;;;;;19.80;10.30;;;;;;;4.39;100.00;97786.32;108983;1254;73731;-81
2023/11/09 08:21:32;;;;;;;18.10;9.90;;;;;;;4.54;100.00;97788.58;108982;1253;70320;-81
2023/11/09 08:23:59;;;;;;;26.10;13.70;;;;;;;4.68;100.00;97787.44;109121;1253;72645;-80
2023/11/09 08:26:26;;;;;;;23.70;14.90;;;;;;;4.83;100.00;97782.69;109124;1252;58989;-81
2023/11/09 08:28:52;;;;;;;22.80;13.90;;;;;;;4.96;100.00;97782.02;108885;1254;59452;-80
2023/11/09 08:31:19;;;;;;;19.60;11.10;;;;;;;5.11;100.00;97780.33;109073;1253;72886;-81
2023/11/09 08:33:46;;;;;;;29.20;18.30;;;;;;;5.26;100.00;97778.94;109083;1256;69642;-82
2023/11/09 08:36:13;;;;;;;36.60;18.40;;;;;;;5.44;100.00;97777.36;109062;1253;71468;-81
2023/11/09 08:38:40;;;;;;;29.00;17.20;;;;;;;5.61;100.00;97777.27;108921;1253;58459;-81
2023/11/09 08:41:07;;;;;;;41.50;22.80;;;;;;;5.78;100.00;97773.84;109073;1254;60179;-81
2023/11/09 08:43:33;;;;;;;26.80;14.50;;;;;;;5.91;100.00;97777.91;108912;1253;73749;-81
2023/11/09 08:46:03;;;;;;;19.60;10.70;;;;;;;6.04;100.00;97777.43;109117;1253;70780;-81
2023/11/09 08:48:30;;;;;;;20.20;9.10;;;;;;;6.19;100.00;97770.78;109090;1253;72277;-81
2023/11/09 08:51:00;;;;;;;13.10;8.50;;;;;;;6.38;100.00;97769.85;109103;1253;59515;-81
2023/11/09 08:53:31;;;;;;;13.80;7.40;;;;;;;6.60;100.00;97772.05;109075;1253;58396;-81
2023/11/09 08:56:01;;;;;;;17.60;11.10;;;;;;;6.79;100.00;97767.47;108952;1253;73751;-81
2023/11/09 08:58:28;;;;;;;21.50;9.30;;;;;;;6.97;100.00;97757.21;108898;1253;69618;-80
2023/11/09 09:01:01;;;;;;;13.20;8.50;;;;;;;7.13;100.00;97754.54;109092;1253;73355;-80
2023/11/09 09:03:28;;;;;;;17.00;8.70;;;;;;;7.28;100.00;97750.61;108890;1253;59503;-81
2023/11/09 09:05:55;;;;;;;25.90;11.30;;;;;;;7.47;100.00;97745.75;108909;1253;60458;-81
2023/11/09 09:08:26;;;;;;;18.90;10.80;;;;;;;7.66;100.00;97738.30;109128;1253;73754;-81
2023/11/09 09:10:56;;;;;;;23.50;11.70;;;;;;;7.95;100.00;97735.84;109120;1253;72244;-81
2023/11/09 09:13:23;;;;;;;18.50;9.20;;;;;;;8.18;100.00;97732.86;108998;1253;72237;-80
2023/11/09 09:15:49;;;;;;;24.00;12.00;;;;;;;8.47;100.00;97730.33;109111;1253;58443;-81
2023/11/09 09:18:16;;;;;;;7.90;3.20;;;;;;;8.92;100.00;97730.85;109096;1253;59149;-81
2023/11/09 09:20:43;;;;;;;6.60;3.20;;;;;;;9.46;98.15;97727.95;109148;1253;73398;-81
2023/11/09 09:23:10;;;;;;;7.10;2.10;;;;;;;9.88;94.02;97734.52;109120;1257;69890;-81
2023/11/09 09:25:38;;;;;;;7.60;3.40;;;;;;;10.23;88.82;97729.59;108859;1254;71280;-81
2023/11/09 09:28:07;;;;;;;4.40;2.30;;;;;;;10.53;87.59;97731.13;109071;1253;58340;-81
2023/11/09 09:30:35;;;;;;;6.50;3.20;;;;;;;10.75;84.21;97719.23;109132;1253;59755;-80
2023/11/09 09:33:03;;;;;;;3.00;1.80;;;;;;;10.95;81.87;97714.23;109147;1253;73516;-81
2023/11/09 09:35:32;;;;;;;6.60;1.40;;;;;;;11.11;77.87;97716.27;109113;1253;69424;-81
2023/11/09 09:37:59;;;;;;;6.00;3.80;;;;;;;11.25;77.58;97718.75;109150;1256;72673;-81
2023/11/09 09:40:29;;;;;;;3.60;1.70;;;;;;;11.37;75.32;97717.13;109093;1256;58293;-80
2023/11/09 09:42:56;;;;;;;4.80;1.60;;;;;;;11.46;73.97;97711.52;109250;1253;58334;-81
2023/11/09 09:45:26;;;;;;;2.80;1.50;;;;;;;11.54;68.86;97709.66;109152;1253;72575;-81
2023/11/09 09:47:54;;;;;;;3.80;1.60;;;;;;;11.64;68.23;97708.34;109210;1253;71007;-82
2023/11/09 09:50:24;;;;;;;6.60;2.60;;;;;;;11.69;68.36;97709.23;108980;1257;72221;-81
2023/11/09 09:52:52;;;;;;;6.00;2.40;;;;;;;11.75;68.79;97707.84;109004;1257;58642;-81
2023/11/09 09:55:21;;;;;;;3.10;2.00;;;;;;;11.79;68.03;97703.70;109178;1253;60010;-82
2023/11/09 09:57:47;;;;;;;5.40;3.10;;;;;;;11.84;68.76;97704.75;109098;1253;73031;-81
2023/11/09 10:00:28;;;;;;;3.90;2.00;;;;;;;11.90;67.14;97702.66;109102;1254;71064;-82
2023/11/09 10:03:02;;;;;;;4.00;2.10;;;;;;;12.01;66.14;97699.42;109071;1253;71832;-81
2023/11/09 10:05:33;;;;;;;4.00;3.00;;;;;;;12.06;66.70;97697.30;109042;1253;58932;-81
2023/11/09 10:08:15;;;;;;;6.60;2.40;;;;;;;12.11;66.36;97692.26;109121;1253;60610;-81
2023/11/09 10:10:49;;;;;;;3.40;2.10;;;;;;;12.15;66.14;97689.77;109091;1253;73545;-81
2023/11/09 10:13:18;;;;;;;2.70;1.70;;;;;;;12.16;65.87;97686.59;108998;1253;71224;-81
2023/11/09 10:15:45;;;;;;;2.80;1.40;;;;;;;12.20;65.44;97676.84;109109;1253;72291;-82
2023/11/09 10:18:12;;;;;;;4.40;2.70;;;;;;;12.22;66.05;97682.68;108851;1253;58857;-81
2023/11/09 10:20:42;;;;;;;6.10;3.00;;;;;;;12.29;65.41;97680.05;109075;1253;60530;-81
2023/11/09 10:23:12;;;;;;;12.40;6.50;;;;;;;12.34;66.72;97678.61;109135;1256;73499;-81
2023/11/09 10:25:41;;;;;;;9.40;4.00;;;;;;;12.43;66.36;97678.39;109130;1253;71260;-82
2023/11/09 10:28:08;;;;;;;12.80;6.00;;;;;;;12.51;66.35;97675.05;108893;1259;71030;-82
2023/11/09 10:30:41;;;;;;;8.20;2.90;;;;;;;12.58;65.98;97671.78;108933;1253;58271;-82
2023/11/09 10:33:08;;;;;;;10.50;3.90;;;;;;;12.63;65.31;97672.95;108874;1253;59475;-82
2023/11/09 10:35:37;;;;;;;9.80;4.90;;;;;;;12.68;64.84;97675.10;109070;1253;75141;-79
2023/11/09 10:38:12;;;;;;;6.60;2.90;;;;;;;12.74;63.96;97664.61;109165;1254;70734;-81
2023/11/09 10:40:41;;;;;;;13.00;5.00;;;;;;;12.76;65.40;97667.39;109080;1253;71758;-81
2023/11/09 10:43:08;;;;;;;12.10;6.30;;;;;;;12.87;64.39;97659.83;109060;1256;58562;-81
2023/11/09 10:45:38;;;;;;;3.90;2.30;;;;;;;12.92;63.94;97659.30;109004;1255;59938;-81
2023/11/09 10:48:15;;;;;;;2.40;1.60;;;;;;;12.94;64.31;97660.77;109186;1253;74702;-81
2023/11/09 10:50:46;;;;;;;3.80;2.40;;;;;;;13.01;64.27;97659.13;109072;1253;68968;-81
2023/11/09 10:53:21;;;;;;;2.90;2.00;;;;;;;13.03;64.53;97652.42;109089;1253;71790;-81
2023/11/09 10:55:54;;;;;;;6.50;4.20;;;;;;;13.02;63.64;97654.40;108957;1256;58976;-81
2023/11/09 10:58:21;;;;;;;2.50;1.90;;;;;;;12.97;63.59;97655.44;109306;1256;58921;-81
2023/11/09 11:00:57;;;;;;;7.90;2.30;;;;;;;12.92;63.41;97656.63;109160;1253;72911;-81
2023/11/09 11:03:25;;;;;;;4.50;2.10;;;;;;;12.85;63.50;97656.98;109044;1254;71404;-81
2023/11/09 11:06:01;;;;;;;2.60;1.60;;;;;;;12.79;65.09;97653.30;108996;1256;71603;-81
2023/11/09 11:08:31;;;;;;;1.90;1.20;;;;;;;12.80;64.87;97650.12;109019;1254;58168;-81
2023/11/09 11:10:58;;;;;;;4.50;1.30;;;;;;;12.81;63.60;97643.02;109014;1258;59996;-81
2023/11/09 11:13:26;;;;;;;11.00;4.20;;;;;;;12.77;63.81;97643.34;108867;1260;72713;-82
2023/11/09 11:16:31;;;;;;;3.20;2.00;;;;;;;12.72;64.06;97637.63;109103;1257;72238;-81
2023/11/09 11:19:08;;;;;;;2.20;1.40;;;;;;;12.69;63.53;97643.64;109029;1253;71990;-81
2023/11/09 11:22:09;;;;;;;3.40;1.70;;;;;;;12.63;63.13;97641.77;108955;1258;59541;-82
2023/11/09 11:24:53;;;;;;;2.20;1.30;;;;;;;12.50;63.81;97644.63;109146;1254;58969;-81
2023/11/09 11:27:37;;;;;;;6.30;2.50;;;;;;;12.47;63.46;97641.52;109106;1256;75076;-81
2023/11/09 11:30:39;;;;;;;9.00;3.90;;;;;;;12.37;64.34;97641.39;109146;1254;69880;-81
2023/11/09 11:33:22;;;;;;;4.10;1.70;;;;;;;12.37;64.30;97637.48;108564;1264;72154;-81